Champion, Canada
Current Conditions -  °F | °C
As of 10:00 PM on Wednesday 17 Dec 2014 (Local Time) from CYQL Reporting Station
Broken Clouds Broken Clouds  
Wind Chill: -6°   Ceiling: 19000
Heat Index: -2°   Visibility: 15mi
Dew Point: -5°   Wind: 8mph
Humidity: 80%   Direction: 230°SW
Pressure: 29.84"   Gusts: NA
Location:  50.22°N, 113.15°W
Report Text: CYQL 180500Z 23007KT 15SM BKN190 M02/M05 A2984 RMK CI6 LAST STFD OBS/NXT 181300UTC SLP147
Loading
Personal Weather Stations






























Interactive Weather Map New forecast layout! Learn more

10-Day Weather Forecast

Advertisements
Track Severe Weather on mobile